sensor_id;sensor_type;location;lat;lon;timestamp;pressure;altitude;pressure_sealevel;temperature;humidity
56270;BME280;42176;43.240;27.880;2023-04-01T00:00:48;99347.47;;;10.22;100.00
56270;BME280;42176;43.240;27.880;2023-04-01T00:03:13;99361.28;;;10.32;100.00
56270;BME280;42176;43.240;27.880;2023-04-01T00:05:39;99366.66;;;10.30;100.00
56270;BME280;42176;43.240;27.880;2023-04-01T00:08:04;99346.63;;;10.21;100.00
56270;BME280;42176;43.240;27.880;2023-04-01T00:10:30;99357.72;;;10.33;100.00
56270;BME280;42176;43.240;27.880;2023-04-01T00:12:56;99337.69;;;10.24;100.00
56270;BME280;42176;43.240;27.880;2023-04-01T00:15:21;99339.59;;;10.20;100.00
56270;BME280;42176;43.240;27.880;2023-04-01T00:17:49;99342.84;;;10.29;100.00
56270;BME280;42176;43.240;27.880;2023-04-01T00:20:15;99354.25;;;10.31;100.00
56270;BME280;42176;43.240;27.880;2023-04-01T00:22:41;99359.56;;;10.31;100.00
56270;BME280;42176;43.240;27.880;2023-04-01T00:25:07;99354.25;;;10.31;100.00
56270;BME280;42176;43.240;27.880;2023-04-01T00:27:33;99344.56;;;10.30;100.00
56270;BME280;42176;43.240;27.880;2023-04-01T00:30:05;99336.63;;;10.30;100.00
56270;BME280;42176;43.240;27.880;2023-04-01T00:32:34;99342.63;;;10.35;100.00
56270;BME280;42176;43.240;27.880;2023-04-01T00:35:00;99337.19;;;10.41;100.00
56270;BME280;42176;43.240;27.880;2023-04-01T00:37:26;99329.81;;;9.96;99.89
56270;BME280;42176;43.240;27.880;2023-04-01T00:39:52;99334.81;;;9.48;100.00
56270;BME280;42176;43.240;27.880;2023-04-01T00:42:18;99337.47;;;9.18;100.00
56270;BME280;42176;43.240;27.880;2023-04-01T00:44:47;99334.72;;;9.21;100.00
56270;BME280;42176;43.240;27.880;2023-04-01T00:47:15;99322.97;;;9.32;100.00
56270;BME280;42176;43.240;27.880;2023-04-01T00:49:44;99318.34;;;9.67;100.00
56270;BME280;42176;43.240;27.880;2023-04-01T00:52:13;99319.50;;;9.58;100.00
56270;BME280;42176;43.240;27.880;2023-04-01T00:54:45;99316.09;;;9.26;100.00
56270;BME280;42176;43.240;27.880;2023-04-01T00:57:34;99317.16;;;9.19;100.00
56270;BME280;42176;43.240;27.880;2023-04-01T01:00:09;99311.72;;;9.25;100.00
56270;BME280;42176;43.240;27.880;2023-04-01T01:02:41;99313.16;;;9.35;100.00
56270;BME280;42176;43.240;27.880;2023-04-01T01:05:06;99312.09;;;9.41;100.00
56270;BME280;42176;43.240;27.880;2023-04-01T01:07:42;99299.59;;;9.46;100.00
56270;BME280;42176;43.240;27.880;2023-04-01T01:10:28;99309.97;;;9.52;100.00
56270;BME280;42176;43.240;27.880;2023-04-01T01:13:17;99311.63;;;9.56;100.00
56270;BME280;42176;43.240;27.880;2023-04-01T01:16:00;99312.44;;;9.58;100.00
56270;BME280;42176;43.240;27.880;2023-04-01T01:18:37;99321.25;;;9.59;100.00
56270;BME280;42176;43.240;27.880;2023-04-01T01:26:58;99306.41;;;9.53;100.00
56270;BME280;42176;43.240;27.880;2023-04-01T01:37:53;99305.75;;;9.47;100.00
56270;BME280;42176;43.240;27.880;2023-04-01T01:40:20;99294.31;;;9.46;100.00
56270;BME280;42176;43.240;27.880;2023-04-01T01:42:50;99297.00;;;9.44;100.00
56270;BME280;42176;43.240;27.880;2023-04-01T01:45:19;99310.19;;;9.46;100.00
56270;BME280;42176;43.240;27.880;2023-04-01T01:47:49;99300.59;;;9.42;100.00
56270;BME280;42176;43.240;27.880;2023-04-01T01:50:16;99304.81;;;9.49;100.00
56270;BME280;42176;43.240;27.880;2023-04-01T01:52:42;99308.03;;;9.29;100.00
56270;BME280;42176;43.240;27.880;2023-04-01T01:57:56;99311.47;;;8.36;100.00
56270;BME280;42176;43.240;27.880;2023-04-01T02:00:23;99306.22;;;8.35;100.00
56270;BME280;42176;43.240;27.880;2023-04-01T02:02:50;99311.31;;;8.76;100.00
56270;BME280;42176;43.240;27.880;2023-04-01T02:05:27;99307.38;;;8.59;100.00
56270;BME280;42176;43.240;27.880;2023-04-01T02:08:02;99307.63;;;8.50;100.00
56270;BME280;42176;43.240;27.880;2023-04-01T02:10:33;99305.81;;;8.52;100.00
56270;BME280;42176;43.240;27.880;2023-04-01T02:13:04;99301.25;;;8.57;100.00
56270;BME280;42176;43.240;27.880;2023-04-01T02:15:33;99297.47;;;8.67;100.00
56270;BME280;42176;43.240;27.880;2023-04-01T02:18:03;99284.19;;;8.71;100.00
56270;BME280;42176;43.240;27.880;2023-04-01T02:20:30;99293.22;;;8.93;100.00
56270;BME280;42176;43.240;27.880;2023-04-01T02:22:56;99290.09;;;9.10;100.00
56270;BME280;42176;43.240;27.880;2023-04-01T02:25:33;99293.13;;;9.26;100.00
56270;BME280;42176;43.240;27.880;2023-04-01T02:28:00;99264.66;;;9.35;100.00
56270;BME280;42176;43.240;27.880;2023-04-01T02:30:28;99265.06;;;9.51;100.00
56270;BME280;42176;43.240;27.880;2023-04-01T02:32:56;99278.13;;;9.55;100.00
56270;BME280;42176;43.240;27.880;2023-04-01T02:35:23;99261.53;;;9.50;100.00
56270;BME280;42176;43.240;27.880;2023-04-01T02:37:50;99274.41;;;9.63;100.00
56270;BME280;42176;43.240;27.880;2023-04-01T02:40:17;99269.94;;;9.65;100.00
56270;BME280;42176;43.240;27.880;2023-04-01T02:42:43;99267.38;;;9.62;100.00
56270;BME280;42176;43.240;27.880;2023-04-01T02:45:09;99268.31;;;9.59;100.00
56270;BME280;42176;43.240;27.880;2023-04-01T02:47:35;99262.34;;;9.52;100.00
56270;BME280;42176;43.240;27.880;2023-04-01T02:50:01;99251.00;;;9.49;100.00
56270;BME280;42176;43.240;27.880;2023-04-01T02:52:27;99244.97;;;9.45;100.00
56270;BME280;42176;43.240;27.880;2023-04-01T02:54:55;99246.13;;;9.36;100.00
56270;BME280;42176;43.240;27.880;2023-04-01T02:57:21;99234.88;;;9.29;100.00
56270;BME280;42176;43.240;27.880;2023-04-01T02:59:46;99236.50;;;9.34;100.00
56270;BME280;42176;43.240;27.880;2023-04-01T03:02:12;99235.03;;;8.95;100.00
56270;BME280;42176;43.240;27.880;2023-04-01T03:04:37;99226.78;;;8.43;100.00
56270;BME280;42176;43.240;27.880;2023-04-01T03:07:03;99231.25;;;8.07;100.00
56270;BME280;42176;43.240;27.880;2023-04-01T03:09:29;99225.88;;;8.11;100.00
56270;BME280;42176;43.240;27.880;2023-04-01T03:11:55;99230.19;;;8.15;100.00
56270;BME280;42176;43.240;27.880;2023-04-01T03:14:21;99231.63;;;8.27;100.00
56270;BME280;42176;43.240;27.880;2023-04-01T03:16:46;99216.56;;;8.30;100.00
56270;BME280;42176;43.240;27.880;2023-04-01T03:19:11;99217.00;;;8.48;100.00
56270;BME280;42176;43.240;27.880;2023-04-01T03:21:37;99223.72;;;8.60;100.00
56270;BME280;42176;43.240;27.880;2023-04-01T03:24:03;99224.41;;;8.66;100.00
56270;BME280;42176;43.240;27.880;2023-04-01T03:26:28;99211.94;;;8.72;100.00
56270;BME280;42176;43.240;27.880;2023-04-01T03:28:54;99207.22;;;8.81;100.00
56270;BME280;42176;43.240;27.880;2023-04-01T03:31:21;99204.25;;;8.92;100.00
56270;BME280;42176;43.240;27.880;2023-04-01T03:33:46;99200.72;;;8.93;100.00
56270;BME280;42176;43.240;27.880;2023-04-01T03:36:12;99208.53;;;8.96;100.00
56270;BME280;42176;43.240;27.880;2023-04-01T03:38:39;99198.78;;;8.98;100.00
56270;BME280;42176;43.240;27.880;2023-04-01T03:41:05;99195.16;;;9.03;100.00
56270;BME280;42176;43.240;27.880;2023-04-01T03:43:31;99195.91;;;9.06;100.00
56270;BME280;42176;43.240;27.880;2023-04-01T03:45:57;99192.53;;;9.01;100.00
56270;BME280;42176;43.240;27.880;2023-04-01T03:48:23;99189.88;;;9.03;100.00
56270;BME280;42176;43.240;27.880;2023-04-01T03:50:48;99205.34;;;9.15;100.00
56270;BME280;42176;43.240;27.880;2023-04-01T03:53:14;99192.06;;;9.17;100.00
56270;BME280;42176;43.240;27.880;2023-04-01T03:55:40;99204.19;;;9.24;100.00
56270;BME280;42176;43.240;27.880;2023-04-01T03:58:07;99215.44;;;9.31;100.00
56270;BME280;42176;43.240;27.880;2023-04-01T04:00:32;99213.56;;;9.34;100.00
56270;BME280;42176;43.240;27.880;2023-04-01T04:02:58;99214.38;;;9.36;100.00
56270;BME280;42176;43.240;27.880;2023-04-01T04:05:25;99217.84;;;9.38;100.00
56270;BME280;42176;43.240;27.880;2023-04-01T04:07:51;99226.47;;;9.43;100.00
56270;BME280;42176;43.240;27.880;2023-04-01T04:10:17;99224.56;;;9.49;100.00
56270;BME280;42176;43.240;27.880;2023-04-01T04:12:42;99207.03;;;9.46;100.00
56270;BME280;42176;43.240;27.880;2023-04-01T04:15:08;99216.31;;;9.58;100.00
56270;BME280;42176;43.240;27.880;2023-04-01T04:17:34;99205.59;;;9.63;100.00
56270;BME280;42176;43.240;27.880;2023-04-01T04:20:00;99201.91;;;9.67;100.00
56270;BME280;42176;43.240;27.880;2023-04-01T04:22:26;99205.19;;;9.75;100.00
56270;BME280;42176;43.240;27.880;2023-04-01T04:24:52;99203.75;;;9.92;100.00
56270;BME280;42176;43.240;27.880;2023-04-01T04:27:17;99197.50;;;10.19;100.00
56270;BME280;42176;43.240;27.880;2023-04-01T04:29:43;99201.19;;;10.88;100.00
56270;BME280;42176;43.240;27.880;2023-04-01T04:32:08;99205.25;;;11.21;100.00
56270;BME280;42176;43.240;27.880;2023-04-01T04:34:34;99202.59;;;11.86;96.69
56270;BME280;42176;43.240;27.880;2023-04-01T04:36:59;99197.84;;;12.56;91.22
56270;BME280;42176;43.240;27.880;2023-04-01T04:39:25;99191.88;;;13.28;85.41
56270;BME280;42176;43.240;27.880;2023-04-01T04:41:50;99186.13;;;13.37;82.32
56270;BME280;42176;43.240;27.880;2023-04-01T04:44:16;99169.81;;;13.06;83.14
56270;BME280;42176;43.240;27.880;2023-04-01T04:46:41;99194.84;;;13.21;81.94
56270;BME280;42176;43.240;27.880;2023-04-01T04:49:07;99178.88;;;13.40;80.32
56270;BME280;42176;43.240;27.880;2023-04-01T04:51:32;99191.66;;;13.51;77.77
56270;BME280;42176;43.240;27.880;2023-04-01T04:54:02;99177.63;;;13.65;75.80
56270;BME280;42176;43.240;27.880;2023-04-01T04:56:28;99183.69;;;13.69;76.44
56270;BME280;42176;43.240;27.880;2023-04-01T04:58:54;99178.28;;;14.23;72.06
56270;BME280;42176;43.240;27.880;2023-04-01T05:01:19;99189.13;;;15.03;67.24
56270;BME280;42176;43.240;27.880;2023-04-01T05:03:45;99179.19;;;14.73;67.69
56270;BME280;42176;43.240;27.880;2023-04-01T05:06:13;99181.63;;;14.60;68.86
56270;BME280;42176;43.240;27.880;2023-04-01T05:08:39;99178.31;;;14.39;69.13
56270;BME280;42176;43.240;27.880;2023-04-01T05:11:12;99178.84;;;13.95;71.54
56270;BME280;42176;43.240;27.880;2023-04-01T05:13:38;99172.63;;;13.94;73.59
56270;BME280;42176;43.240;27.880;2023-04-01T05:16:03;99183.91;;;13.82;73.62
56270;BME280;42176;43.240;27.880;2023-04-01T05:18:29;99185.25;;;13.73;73.90
56270;BME280;42176;43.240;27.880;2023-04-01T05:20:57;99176.13;;;13.42;74.83
56270;BME280;42176;43.240;27.880;2023-04-01T05:23:23;99175.75;;;13.31;75.39
56270;BME280;42176;43.240;27.880;2023-04-01T05:25:49;99174.28;;;13.06;76.54
56270;BME280;42176;43.240;27.880;2023-04-01T05:28:15;99170.81;;;12.85;78.48
56270;BME280;42176;43.240;27.880;2023-04-01T05:30:46;99159.47;;;12.81;78.83
56270;BME280;42176;43.240;27.880;2023-04-01T05:33:12;99161.91;;;13.05;77.54
56270;BME280;42176;43.240;27.880;2023-04-01T05:35:39;99161.59;;;13.11;77.52
56270;BME280;42176;43.240;27.880;2023-04-01T05:38:05;99159.41;;;13.38;76.88
56270;BME280;42176;43.240;27.880;2023-04-01T05:40:31;99158.94;;;13.67;75.35
56270;BME280;42176;43.240;27.880;2023-04-01T05:43:02;99151.41;;;14.10;73.65
56270;BME280;42176;43.240;27.880;2023-04-01T05:45:28;99159.75;;;14.38;70.40
56270;BME280;42176;43.240;27.880;2023-04-01T05:47:53;99150.28;;;14.32;69.77
56270;BME280;42176;43.240;27.880;2023-04-01T05:50:19;99146.00;;;14.61;69.04
56270;BME280;42176;43.240;27.880;2023-04-01T05:52:45;99127.13;;;14.98;67.64
56270;BME280;42176;43.240;27.880;2023-04-01T05:55:10;99120.00;;;15.76;63.56
56270;BME280;42176;43.240;27.880;2023-04-01T05:57:36;99137.50;;;16.26;60.22
56270;BME280;42176;43.240;27.880;2023-04-01T06:00:03;99131.19;;;16.56;59.47
56270;BME280;42176;43.240;27.880;2023-04-01T06:02:29;99120.19;;;17.17;57.39
56270;BME280;42176;43.240;27.880;2023-04-01T06:05:19;99125.53;;;17.72;55.57
56270;BME280;42176;43.240;27.880;2023-04-01T06:07:46;99124.13;;;17.79;53.65
56270;BME280;42176;43.240;27.880;2023-04-01T06:10:17;99124.94;;;18.07;53.00
56270;BME280;42176;43.240;27.880;2023-04-01T06:12:54;99119.59;;;18.20;53.30
56270;BME280;42176;43.240;27.880;2023-04-01T06:23:58;99117.50;;;16.75;57.12
56270;BME280;42176;43.240;27.880;2023-04-01T06:43:44;99104.91;;;15.14;67.38
56270;BME280;42176;43.240;27.880;2023-04-01T06:52:19;99093.25;;;14.84;70.75
56270;BME280;42176;43.240;27.880;2023-04-01T06:54:57;99087.94;;;15.15;70.09
56270;BME280;42176;43.240;27.880;2023-04-01T06:57:34;99084.00;;;15.06;70.43
56270;BME280;42176;43.240;27.880;2023-04-01T07:00:12;99097.28;;;15.68;68.97
56270;BME280;42176;43.240;27.880;2023-04-01T07:02:54;99097.38;;;15.97;66.59
56270;BME280;42176;43.240;27.880;2023-04-01T07:05:24;99109.66;;;15.86;66.15
56270;BME280;42176;43.240;27.880;2023-04-01T07:07:52;99108.44;;;16.06;66.79
56270;BME280;42176;43.240;27.880;2023-04-01T07:13:00;99106.53;;;16.80;63.57
56270;BME280;42176;43.240;27.880;2023-04-01T07:15:33;99088.19;;;17.29;60.69
56270;BME280;42176;43.240;27.880;2023-04-01T07:18:05;99089.63;;;17.88;56.47
56270;BME280;42176;43.240;27.880;2023-04-01T07:20:36;99093.28;;;17.87;56.56
56270;BME280;42176;43.240;27.880;2023-04-01T07:23:04;99091.34;;;17.89;55.82
56270;BME280;42176;43.240;27.880;2023-04-01T07:25:38;99058.00;;;17.27;56.64
56270;BME280;42176;43.240;27.880;2023-04-01T07:28:17;99086.28;;;17.31;57.13
56270;BME280;42176;43.240;27.880;2023-04-01T07:30:56;99078.81;;;16.81;59.43
56270;BME280;42176;43.240;27.880;2023-04-01T07:36:05;99080.34;;;16.56;60.69
56270;BME280;42176;43.240;27.880;2023-04-01T07:39:04;99074.56;;;16.21;62.52
56270;BME280;42176;43.240;27.880;2023-04-01T07:47:24;99072.81;;;15.46;66.88
56270;BME280;42176;43.240;27.880;2023-04-01T07:56:28;99066.03;;;15.10;70.11
56270;BME280;42176;43.240;27.880;2023-04-01T08:02:08;99058.59;;;14.51;74.41
56270;BME280;42176;43.240;27.880;2023-04-01T08:08:09;99054.56;;;15.38;71.29
56270;BME280;42176;43.240;27.880;2023-04-01T08:18:47;99034.38;;;17.06;61.88
56270;BME280;42176;43.240;27.880;2023-04-01T08:21:27;99031.22;;;17.27;61.67
56270;BME280;42176;43.240;27.880;2023-04-01T08:23:56;99028.63;;;17.12;60.96
56270;BME280;42176;43.240;27.880;2023-04-01T08:26:28;99024.19;;;17.52;60.53
56270;BME280;42176;43.240;27.880;2023-04-01T08:29:29;99013.06;;;17.84;59.26
56270;BME280;42176;43.240;27.880;2023-04-01T08:32:21;99026.75;;;17.92;57.75
56270;BME280;42176;43.240;27.880;2023-04-01T08:34:58;99011.00;;;17.48;58.47
56270;BME280;42176;43.240;27.880;2023-04-01T08:37:40;99003.81;;;17.62;59.71
56270;BME280;42176;43.240;27.880;2023-04-01T08:45:48;99020.13;;;17.85;60.08
56270;BME280;42176;43.240;27.880;2023-04-01T08:49:00;98997.75;;;18.49;58.26
56270;BME280;42176;43.240;27.880;2023-04-01T09:00:00;99006.59;;;19.93;52.54
56270;BME280;42176;43.240;27.880;2023-04-01T09:03:10;99000.94;;;20.42;51.17
56270;BME280;42176;43.240;27.880;2023-04-01T09:08:51;98991.72;;;20.79;51.57
56270;BME280;42176;43.240;27.880;2023-04-01T09:27:56;98976.59;;;19.53;52.68
56270;BME280;42176;43.240;27.880;2023-04-01T09:44:37;98955.84;;;19.08;54.76
56270;BME280;42176;43.240;27.880;2023-04-01T09:53:11;98930.56;;;18.86;56.58
56270;BME280;42176;43.240;27.880;2023-04-01T09:59:14;98919.72;;;19.12;56.07
56270;BME280;42176;43.240;27.880;2023-04-01T10:07:56;98881.16;;;19.81;51.81
56270;BME280;42176;43.240;27.880;2023-04-01T10:13:36;98880.47;;;19.90;52.52
56270;BME280;42176;43.240;27.880;2023-04-01T10:52:28;98861.63;;;19.22;56.31
56270;BME280;42176;43.240;27.880;2023-04-01T11:01:02;98843.53;;;19.47;55.42
56270;BME280;42176;43.240;27.880;2023-04-01T11:12:13;98818.94;;;18.83;55.75
56270;BME280;42176;43.240;27.880;2023-04-01T11:28:39;98800.81;;;19.21;56.51
56270;BME280;42176;43.240;27.880;2023-04-01T11:44:28;98806.81;;;18.31;62.39
56270;BME280;42176;43.240;27.880;2023-04-01T11:58:11;98783.41;;;18.33;62.88
56270;BME280;42176;43.240;27.880;2023-04-01T12:04:15;98772.06;;;18.29;61.97
56270;BME280;42176;43.240;27.880;2023-04-01T12:12:32;98768.13;;;18.69;57.41
56270;BME280;42176;43.240;27.880;2023-04-01T12:18:01;98765.66;;;19.13;57.57
56270;BME280;42176;43.240;27.880;2023-04-01T12:43:48;98753.44;;;19.43;55.59
56270;BME280;42176;43.240;27.880;2023-04-01T13:00:20;98759.66;;;17.42;69.71
56270;BME280;42176;43.240;27.880;2023-04-01T13:08:34;98734.94;;;17.26;69.92
56270;BME280;42176;43.240;27.880;2023-04-01T13:14:15;98728.09;;;17.22;68.71
56270;BME280;42176;43.240;27.880;2023-04-01T13:27:49;98713.94;;;17.57;68.69
56270;BME280;42176;43.240;27.880;2023-04-01T13:30:31;98711.31;;;17.68;68.80
56270;BME280;42176;43.240;27.880;2023-04-01T13:36:47;98723.47;;;18.09;68.20
56270;BME280;42176;43.240;27.880;2023-04-01T13:44:44;98694.78;;;17.99;65.68
56270;BME280;42176;43.240;27.880;2023-04-01T13:50:26;98687.72;;;18.33;65.19
56270;BME280;42176;43.240;27.880;2023-04-01T13:58:28;98684.28;;;18.31;63.72
56270;BME280;42176;43.240;27.880;2023-04-01T14:01:06;98680.41;;;18.35;63.79
56270;BME280;42176;43.240;27.880;2023-04-01T14:03:43;98679.63;;;18.22;64.09
56270;BME280;42176;43.240;27.880;2023-04-01T14:09:11;98679.91;;;18.41;63.89
56270;BME280;42176;43.240;27.880;2023-04-01T14:17:17;98689.00;;;17.92;67.51
56270;BME280;42176;43.240;27.880;2023-04-01T14:25:53;98714.13;;;15.87;80.79
56270;BME280;42176;43.240;27.880;2023-04-01T14:31:27;98698.31;;;15.70;82.86
56270;BME280;42176;43.240;27.880;2023-04-01T14:37:15;98687.56;;;15.29;85.46
56270;BME280;42176;43.240;27.880;2023-04-01T14:47:50;98685.97;;;15.12;87.51
56270;BME280;42176;43.240;27.880;2023-04-01T14:50:25;98689.97;;;15.05;87.41
56270;BME280;42176;43.240;27.880;2023-04-01T15:03:38;98653.41;;;14.92;88.07
56270;BME280;42176;43.240;27.880;2023-04-01T15:14:18;98625.44;;;14.85;89.16
56270;BME280;42176;43.240;27.880;2023-04-01T15:16:59;98628.00;;;14.87;89.39
56270;BME280;42176;43.240;27.880;2023-04-01T15:25:01;98631.38;;;15.03;88.20
56270;BME280;42176;43.240;27.880;2023-04-01T15:27:39;98635.13;;;15.01;88.25
56270;BME280;42176;43.240;27.880;2023-04-01T15:44:01;98604.84;;;14.73;89.41
56270;BME280;42176;43.240;27.880;2023-04-01T15:46:36;98599.44;;;14.60;90.68
56270;BME280;42176;43.240;27.880;2023-04-01T15:49:36;98598.75;;;14.56;91.12
56270;BME280;42176;43.240;27.880;2023-04-01T16:00:30;98623.84;;;13.94;94.74
56270;BME280;42176;43.240;27.880;2023-04-01T16:03:33;98630.31;;;13.60;97.72
56270;BME280;42176;43.240;27.880;2023-04-01T16:06:22;98624.19;;;13.27;100.00
56270;BME280;42176;43.240;27.880;2023-04-01T16:12:15;98659.22;;;13.19;100.00
56270;BME280;42176;43.240;27.880;2023-04-01T16:23:24;98656.13;;;13.43;100.00
56270;BME280;42176;43.240;27.880;2023-04-01T16:26:19;98652.34;;;13.47;100.00
56270;BME280;42176;43.240;27.880;2023-04-01T16:29:17;98664.16;;;13.58;100.00
56270;BME280;42176;43.240;27.880;2023-04-01T16:34:39;98655.38;;;13.72;100.00
56270;BME280;42176;43.240;27.880;2023-04-01T16:37:10;98658.66;;;13.61;100.00
56270;BME280;42176;43.240;27.880;2023-04-01T16:42:49;98656.78;;;13.63;100.00
56270;BME280;42176;43.240;27.880;2023-04-01T16:47:49;98650.38;;;13.81;100.00
56270;BME280;42176;43.240;27.880;2023-04-01T17:01:14;98639.59;;;14.13;97.56
56270;BME280;42176;43.240;27.880;2023-04-01T17:03:46;98650.56;;;14.23;96.91
56270;BME280;42176;43.240;27.880;2023-04-01T17:06:19;98640.38;;;14.30;96.16
56270;BME280;42176;43.240;27.880;2023-04-01T17:19:54;98618.66;;;14.51;94.56
56270;BME280;42176;43.240;27.880;2023-04-01T17:36:27;98616.75;;;14.67;92.51
56270;BME280;42176;43.240;27.880;2023-04-01T17:45:07;98611.13;;;14.72;91.25
56270;BME280;42176;43.240;27.880;2023-04-01T17:47:57;98613.44;;;14.49;92.24
56270;BME280;42176;43.240;27.880;2023-04-01T17:56:22;98622.19;;;14.37;96.32
56270;BME280;42176;43.240;27.880;2023-04-01T18:01:42;98625.63;;;14.39;96.60
56270;BME280;42176;43.240;27.880;2023-04-01T18:04:32;98621.13;;;14.25;96.94
56270;BME280;42176;43.240;27.880;2023-04-01T18:15:55;98605.66;;;13.86;100.00
56270;BME280;42176;43.240;27.880;2023-04-01T18:21:20;98590.38;;;13.60;100.00
56270;BME280;42176;43.240;27.880;2023-04-01T18:26:47;98590.19;;;13.48;100.00
56270;BME280;42176;43.240;27.880;2023-04-01T18:32:12;98616.91;;;13.15;100.00
56270;BME280;42176;43.240;27.880;2023-04-01T18:37:46;98614.41;;;13.44;100.00
56270;BME280;42176;43.240;27.880;2023-04-01T18:45:45;98642.13;;;13.23;100.00
56270;BME280;42176;43.240;27.880;2023-04-01T18:51:23;98657.50;;;13.18;100.00
56270;BME280;42176;43.240;27.880;2023-04-01T18:53:59;98662.13;;;13.15;100.00
56270;BME280;42176;43.240;27.880;2023-04-01T18:56:32;98661.59;;;13.08;100.00
56270;BME280;42176;43.240;27.880;2023-04-01T18:59:01;98689.59;;;12.99;100.00
56270;BME280;42176;43.240;27.880;2023-04-01T19:02:20;98680.06;;;12.95;100.00
56270;BME280;42176;43.240;27.880;2023-04-01T19:04:50;98675.94;;;12.89;100.00
56270;BME280;42176;43.240;27.880;2023-04-01T19:29:56;98699.81;;;12.57;100.00
56270;BME280;42176;43.240;27.880;2023-04-01T19:37:57;98697.56;;;12.49;100.00
56270;BME280;42176;43.240;27.880;2023-04-01T19:40:42;98706.47;;;12.48;100.00
56270;BME280;42176;43.240;27.880;2023-04-01T19:54:28;98710.97;;;12.13;100.00
56270;BME280;42176;43.240;27.880;2023-04-01T20:02:33;98674.00;;;11.91;100.00
56270;BME280;42176;43.240;27.880;2023-04-01T20:05:24;98663.69;;;11.84;100.00
56270;BME280;42176;43.240;27.880;2023-04-01T20:08:06;98662.97;;;11.81;100.00
56270;BME280;42176;43.240;27.880;2023-04-01T20:10:41;98672.97;;;11.76;100.00
56270;BME280;42176;43.240;27.880;2023-04-01T20:15:43;98681.69;;;11.60;100.00
56270;BME280;42176;43.240;27.880;2023-04-01T20:18:45;98676.69;;;11.54;100.00
56270;BME280;42176;43.240;27.880;2023-04-01T20:23:43;98678.25;;;11.58;100.00
56270;BME280;42176;43.240;27.880;2023-04-01T20:26:14;98676.28;;;11.62;100.00
56270;BME280;42176;43.240;27.880;2023-04-01T20:34:15;98689.19;;;11.52;100.00
56270;BME280;42176;43.240;27.880;2023-04-01T20:45:27;98675.28;;;11.47;100.00
56270;BME280;42176;43.240;27.880;2023-04-01T20:48:26;98675.19;;;11.48;100.00
56270;BME280;42176;43.240;27.880;2023-04-01T20:51:04;98678.56;;;11.52;100.00
56270;BME280;42176;43.240;27.880;2023-04-01T20:56:31;98689.75;;;11.58;100.00
56270;BME280;42176;43.240;27.880;2023-04-01T21:07:35;98719.31;;;11.68;100.00
56270;BME280;42176;43.240;27.880;2023-04-01T21:18:47;98764.00;;;11.78;100.00
56270;BME280;42176;43.240;27.880;2023-04-01T21:21:27;98773.50;;;11.64;100.00
56270;BME280;42176;43.240;27.880;2023-04-01T21:24:30;98791.44;;;11.59;100.00
56270;BME280;42176;43.240;27.880;2023-04-01T21:41:17;98832.09;;;11.40;100.00
56270;BME280;42176;43.240;27.880;2023-04-01T21:49:49;98829.19;;;11.47;100.00
56270;BME280;42176;43.240;27.880;2023-04-01T22:00:40;98839.47;;;11.15;100.00
56270;BME280;42176;43.240;27.880;2023-04-01T22:03:26;98839.09;;;11.03;100.00
56270;BME280;42176;43.240;27.880;2023-04-01T22:06:58;98837.88;;;11.10;100.00
56270;BME280;42176;43.240;27.880;2023-04-01T22:14:25;98837.50;;;11.20;100.00
56270;BME280;42176;43.240;27.880;2023-04-01T22:17:00;98842.63;;;11.23;100.00
56270;BME280;42176;43.240;27.880;2023-04-01T22:25:08;98863.34;;;11.15;100.00
56270;BME280;42176;43.240;27.880;2023-04-01T22:27:57;98865.88;;;11.18;100.00
56270;BME280;42176;43.240;27.880;2023-04-01T22:30:59;98869.44;;;11.17;100.00
56270;BME280;42176;43.240;27.880;2023-04-01T22:33:38;98872.72;;;11.22;100.00
56270;BME280;42176;43.240;27.880;2023-04-01T22:36:19;98869.91;;;11.26;100.00
56270;BME280;42176;43.240;27.880;2023-04-01T22:39:07;98865.44;;;11.27;100.00
56270;BME280;42176;43.240;27.880;2023-04-01T22:42:02;98874.63;;;11.20;100.00
56270;BME280;42176;43.240;27.880;2023-04-01T22:50:36;98877.75;;;11.49;100.00
56270;BME280;42176;43.240;27.880;2023-04-01T22:55:33;98879.81;;;11.42;100.00
56270;BME280;42176;43.240;27.880;2023-04-01T22:58:05;98876.38;;;11.40;100.00
56270;BME280;42176;43.240;27.880;2023-04-01T23:00:55;98887.56;;;11.47;100.00
56270;BME280;42176;43.240;27.880;2023-04-01T23:05:55;98879.22;;;11.35;100.00
56270;BME280;42176;43.240;27.880;2023-04-01T23:16:32;98876.84;;;11.48;100.00
56270;BME280;42176;43.240;27.880;2023-04-01T23:19:11;98882.06;;;11.31;100.00
56270;BME280;42176;43.240;27.880;2023-04-01T23:25:18;98891.69;;;11.33;100.00
56270;BME280;42176;43.240;27.880;2023-04-01T23:28:09;98880.56;;;11.25;100.00
56270;BME280;42176;43.240;27.880;2023-04-01T23:33:29;98883.75;;;11.12;100.00
56270;BME280;42176;43.240;27.880;2023-04-01T23:35:56;98875.31;;;11.04;100.00
56270;BME280;42176;43.240;27.880;2023-04-01T23:38:40;98877.94;;;11.04;100.00
56270;BME280;42176;43.240;27.880;2023-04-01T23:41:17;98877.81;;;10.87;100.00
56270;BME280;42176;43.240;27.880;2023-04-01T23:43:54;98888.56;;;10.84;99.44
56270;BME280;42176;43.240;27.880;2023-04-01T23:46:21;98883.38;;;10.80;98.77
56270;BME280;42176;43.240;27.880;2023-04-01T23:48:47;98880.06;;;10.75;98.95
56270;BME280;42176;43.240;27.880;2023-04-01T23:51:26;98871.06;;;10.59;99.38
56270;BME280;42176;43.240;27.880;2023-04-01T23:54:03;98880.38;;;10.47;99.58
56270;BME280;42176;43.240;27.880;2023-04-01T23:56:42;98879.50;;;10.46;100.00
56270;BME280;42176;43.240;27.880;2023-04-01T23:59:37;98877.19;;;10.39;100.00
